Share

Deering, AK

Wien Memorial (PAOT) Elev 16 ft | 66.88 °N, 162.60 °W | Change Station

Current weather conditions updated 12 minutes ago

Scattered Clouds
Scattered Clouds
30 °F
Feels Like 26 °F
N
4
Wind Variable Wind from NE
Sunrise 6:52 AM
Sunset 10:51 PM
Moon Waning Gibbous

Today is forecast to be nearly the same temperature as yesterday.

Pressure 29.91 in
Visibility 10.0 miles
Clouds Scattered Clouds 20000 ft
Windchill 26 °F
Dew Point 23 °F
Humidity 75%
Rainfall 0.00 in
Snow Depth Not available.
UV 1 out of 16
Pollen Not available.
Air Quality Not available.
Flu Activity Sporadic
METAR PAOT 201853Z 05003KT 10SM SCT200 M01/M05 A2991 RMK AO2 SLP129 T10111050

More Conditions Fewer Conditions

Pressure 29.91 in
Visibility 10.0 miles
Clouds Scattered Clouds 20000 ft
Windchill 26 °F
Dew Point 23 °F
Humidity 75%
Rainfall 0.00 in
Snow Depth Not available.
UV 1 out of 16
Pollen Not available.
Air Quality Not available.
Flu Activity Sporadic
METAR PAOT 201853Z 05003KT 10SM SCT200 M01/M05 A2991 RMK AO2 SLP129 T10111050

More Conditions Fewer Conditions

10-Day Weather Forecast

Almanac

Astronomy

Apr. 20, 2014 Rise Set
Actual Time 6:52 AM AKDT 10:51 PM AKDT
Civil Twilight 5:47 AM AKDT 11:57 PM AKDT
Nautical Twilight 3:44 AM AKDT 2:13 AM AKDT
Astronomical Twilight Sun does not rise Sun does not rise
Moon 4:37 AM AKDT 10:31 AM AKDT
Length of Visible Light 18h 09m
Length of Day
15h 59m
Tomorrow will be 7m 20s longer.
Waning Gibbous, 67% of the Moon is Illuminated
Today
Waning Gibbous
Apr 22
Last Quarter
Apr 29
New
May 6
First Quarter
May 14
Full

Today's Extremes

State Highs State Lows

Community

  • Morning Sun
    Morning Sun
  • after rain
    after rain
  • Columbine
    Columbine
  • Easter Sunrise
    Easter Sunrise
  • Easter Eve - The Promise - Lake Palestine, TX
    Easter Eve - The Promise - Lake Palestine, TX

WunderPhotos

Upload Photos

1,703,311 photos uploaded!

WunderBlogs® & News

Nearby

Snow Depth

Station Depth Elevation
Pargon Creek 1 in 300 ft
Rocky Point 4 in 500 ft
Gobblers Knob 7 in 2030 ft
Coldfoot 22 in 1040 ft
Atigun Pass 37 in 4800 ft

Coastal Water Temperatures

Place Temperature
No Stations Reporting

Earthquake Activity

City Distance Mag. Time & Date
No recent earthquake activity has been reported nearby.
Minimum magnitude displayed is 2.5.

Nearby Weather Stations

Station Location Temp. Windchill Dew Point Humidity Wind Precip. Elev Updated Type
RAWS HOODOO HILL AK, Deering, AK 30 °F 26 °F 21 °F 70% NE  at  4 mph 0.00 in / hr 1495 ft 9:56 AM AKDT MADIS

Show More Stations Show Fewer Stations

What do you think?

We're not finished. Please let us know what you like, what you don't like, and what you are still missing.